sensor_id;sensor_type;location;lat;lon;timestamp;P1;durP1;ratioP1;P2;durP2;ratioP2
62623;SDS011;48699;0.000;0.000;2023-05-07T00:01:37;12.40;;;7.00;;
62623;SDS011;48699;0.000;0.000;2023-05-07T00:04:02;13.35;;;6.72;;
62623;SDS011;48699;0.000;0.000;2023-05-07T00:06:28;14.63;;;7.35;;
62623;SDS011;48699;0.000;0.000;2023-05-07T00:08:54;15.73;;;7.95;;
62623;SDS011;48699;0.000;0.000;2023-05-07T00:11:21;14.88;;;8.18;;
62623;SDS011;48699;0.000;0.000;2023-05-07T00:13:47;13.52;;;7.03;;
62623;SDS011;48699;0.000;0.000;2023-05-07T00:16:13;15.75;;;8.65;;
62623;SDS011;48699;0.000;0.000;2023-05-07T00:18:38;13.82;;;6.97;;
62623;SDS011;48699;0.000;0.000;2023-05-07T00:21:03;15.25;;;7.65;;
62623;SDS011;48699;0.000;0.000;2023-05-07T00:23:29;12.32;;;7.43;;
62623;SDS011;48699;0.000;0.000;2023-05-07T00:25:54;13.90;;;8.00;;
62623;SDS011;48699;0.000;0.000;2023-05-07T00:28:19;12.68;;;6.97;;
62623;SDS011;48699;0.000;0.000;2023-05-07T00:30:45;13.68;;;7.60;;
62623;SDS011;48699;0.000;0.000;2023-05-07T00:33:10;15.75;;;7.80;;
62623;SDS011;48699;0.000;0.000;2023-05-07T00:35:35;15.65;;;7.50;;
62623;SDS011;48699;0.000;0.000;2023-05-07T00:38:01;14.85;;;7.78;;
62623;SDS011;48699;0.000;0.000;2023-05-07T00:40:26;14.73;;;7.95;;
62623;SDS011;48699;0.000;0.000;2023-05-07T00:42:51;16.58;;;7.88;;
62623;SDS011;48699;0.000;0.000;2023-05-07T00:45:21;13.80;;;7.95;;
62623;SDS011;48699;0.000;0.000;2023-05-07T00:47:48;14.38;;;7.97;;
62623;SDS011;48699;0.000;0.000;2023-05-07T00:50:13;14.40;;;7.60;;
62623;SDS011;48699;0.000;0.000;2023-05-07T00:52:39;14.70;;;8.25;;
62623;SDS011;48699;0.000;0.000;2023-05-07T00:55:05;15.68;;;8.35;;
62623;SDS011;48699;0.000;0.000;2023-05-07T00:57:37;18.05;;;9.90;;
62623;SDS011;48699;0.000;0.000;2023-05-07T01:00:04;19.77;;;10.70;;
62623;SDS011;48699;0.000;0.000;2023-05-07T01:02:30;17.63;;;9.23;;
62623;SDS011;48699;0.000;0.000;2023-05-07T01:04:56;16.67;;;9.30;;
62623;SDS011;48699;0.000;0.000;2023-05-07T01:07:21;15.38;;;9.38;;
62623;SDS011;48699;0.000;0.000;2023-05-07T01:09:47;13.57;;;7.30;;
62623;SDS011;48699;0.000;0.000;2023-05-07T01:12:13;13.63;;;8.05;;
62623;SDS011;48699;0.000;0.000;2023-05-07T01:14:38;14.27;;;8.32;;
62623;SDS011;48699;0.000;0.000;2023-05-07T01:17:03;17.05;;;9.00;;
62623;SDS011;48699;0.000;0.000;2023-05-07T01:19:29;17.10;;;9.27;;
62623;SDS011;48699;0.000;0.000;2023-05-07T01:21:55;16.98;;;8.73;;
62623;SDS011;48699;0.000;0.000;2023-05-07T01:24:28;15.00;;;8.73;;
62623;SDS011;48699;0.000;0.000;2023-05-07T01:26:53;15.20;;;8.70;;
62623;SDS011;48699;0.000;0.000;2023-05-07T01:29:18;15.60;;;8.68;;
62623;SDS011;48699;0.000;0.000;2023-05-07T01:31:44;17.88;;;8.73;;
62623;SDS011;48699;0.000;0.000;2023-05-07T01:34:09;15.95;;;8.57;;
62623;SDS011;48699;0.000;0.000;2023-05-07T01:36:36;18.88;;;9.43;;
62623;SDS011;48699;0.000;0.000;2023-05-07T01:39:02;17.80;;;9.67;;
62623;SDS011;48699;0.000;0.000;2023-05-07T01:41:27;16.83;;;8.43;;
62623;SDS011;48699;0.000;0.000;2023-05-07T01:43:54;16.30;;;9.60;;
62623;SDS011;48699;0.000;0.000;2023-05-07T01:46:19;16.85;;;9.13;;
62623;SDS011;48699;0.000;0.000;2023-05-07T01:48:45;17.33;;;8.77;;
62623;SDS011;48699;0.000;0.000;2023-05-07T01:51:11;17.45;;;9.65;;
62623;SDS011;48699;0.000;0.000;2023-05-07T01:53:37;18.38;;;10.50;;
62623;SDS011;48699;0.000;0.000;2023-05-07T01:56:02;14.40;;;8.15;;
62623;SDS011;48699;0.000;0.000;2023-05-07T01:58:28;17.88;;;9.57;;
62623;SDS011;48699;0.000;0.000;2023-05-07T02:00:53;14.88;;;8.77;;
62623;SDS011;48699;0.000;0.000;2023-05-07T02:03:19;15.45;;;9.15;;
62623;SDS011;48699;0.000;0.000;2023-05-07T02:05:44;16.52;;;8.75;;
62623;SDS011;48699;0.000;0.000;2023-05-07T02:08:09;15.52;;;8.23;;
62623;SDS011;48699;0.000;0.000;2023-05-07T02:10:35;15.43;;;8.60;;
62623;SDS011;48699;0.000;0.000;2023-05-07T02:13:01;14.38;;;8.60;;
62623;SDS011;48699;0.000;0.000;2023-05-07T02:15:27;17.45;;;9.15;;
62623;SDS011;48699;0.000;0.000;2023-05-07T02:17:59;17.15;;;8.45;;
62623;SDS011;48699;0.000;0.000;2023-05-07T02:20:26;16.90;;;8.88;;
62623;SDS011;48699;0.000;0.000;2023-05-07T02:22:51;15.73;;;8.38;;
62623;SDS011;48699;0.000;0.000;2023-05-07T02:25:17;14.70;;;7.80;;
62623;SDS011;48699;0.000;0.000;2023-05-07T02:27:42;16.52;;;8.93;;
62623;SDS011;48699;0.000;0.000;2023-05-07T02:30:07;15.18;;;7.05;;
62623;SDS011;48699;0.000;0.000;2023-05-07T02:32:33;17.83;;;9.05;;
62623;SDS011;48699;0.000;0.000;2023-05-07T02:34:58;14.88;;;7.90;;
62623;SDS011;48699;0.000;0.000;2023-05-07T02:37:24;17.73;;;8.20;;
62623;SDS011;48699;0.000;0.000;2023-05-07T02:39:49;12.80;;;7.93;;
62623;SDS011;48699;0.000;0.000;2023-05-07T02:42:15;15.25;;;8.93;;
62623;SDS011;48699;0.000;0.000;2023-05-07T02:44:40;14.95;;;8.35;;
62623;SDS011;48699;0.000;0.000;2023-05-07T02:47:05;14.80;;;7.38;;
62623;SDS011;48699;0.000;0.000;2023-05-07T02:49:33;16.10;;;9.52;;
62623;SDS011;48699;0.000;0.000;2023-05-07T02:51:58;15.23;;;7.78;;
62623;SDS011;48699;0.000;0.000;2023-05-07T02:54:24;13.88;;;7.88;;
62623;SDS011;48699;0.000;0.000;2023-05-07T02:56:49;15.20;;;8.55;;
62623;SDS011;48699;0.000;0.000;2023-05-07T02:59:15;15.25;;;8.60;;
62623;SDS011;48699;0.000;0.000;2023-05-07T03:01:40;17.90;;;9.20;;
62623;SDS011;48699;0.000;0.000;2023-05-07T03:04:08;19.02;;;10.10;;
62623;SDS011;48699;0.000;0.000;2023-05-07T03:06:34;18.65;;;9.68;;
62623;SDS011;48699;0.000;0.000;2023-05-07T03:08:59;19.25;;;10.07;;
62623;SDS011;48699;0.000;0.000;2023-05-07T03:11:25;21.33;;;10.10;;
62623;SDS011;48699;0.000;0.000;2023-05-07T03:13:50;16.95;;;9.25;;
62623;SDS011;48699;0.000;0.000;2023-05-07T03:16:16;18.67;;;10.38;;
62623;SDS011;48699;0.000;0.000;2023-05-07T03:18:41;18.35;;;9.68;;
62623;SDS011;48699;0.000;0.000;2023-05-07T03:21:06;20.02;;;10.70;;
62623;SDS011;48699;0.000;0.000;2023-05-07T03:23:32;19.83;;;10.98;;
62623;SDS011;48699;0.000;0.000;2023-05-07T03:25:57;19.42;;;10.88;;
62623;SDS011;48699;0.000;0.000;2023-05-07T03:28:22;18.25;;;10.52;;
62623;SDS011;48699;0.000;0.000;2023-05-07T03:30:48;22.83;;;10.95;;
62623;SDS011;48699;0.000;0.000;2023-05-07T03:33:13;18.13;;;9.88;;
62623;SDS011;48699;0.000;0.000;2023-05-07T03:35:38;21.63;;;11.98;;
62623;SDS011;48699;0.000;0.000;2023-05-07T03:38:04;22.27;;;11.18;;
62623;SDS011;48699;0.000;0.000;2023-05-07T03:40:29;21.88;;;11.50;;
62623;SDS011;48699;0.000;0.000;2023-05-07T03:42:55;21.80;;;11.20;;
62623;SDS011;48699;0.000;0.000;2023-05-07T03:45:20;19.33;;;10.65;;
62623;SDS011;48699;0.000;0.000;2023-05-07T03:47:45;18.83;;;10.27;;
62623;SDS011;48699;0.000;0.000;2023-05-07T03:50:11;21.60;;;12.32;;
62623;SDS011;48699;0.000;0.000;2023-05-07T03:52:36;18.85;;;10.15;;
62623;SDS011;48699;0.000;0.000;2023-05-07T03:55:01;20.58;;;11.27;;
62623;SDS011;48699;0.000;0.000;2023-05-07T03:57:27;21.35;;;10.75;;
62623;SDS011;48699;0.000;0.000;2023-05-07T03:59:52;24.55;;;12.20;;
62623;SDS011;48699;0.000;0.000;2023-05-07T04:02:18;21.50;;;12.27;;
62623;SDS011;48699;0.000;0.000;2023-05-07T04:04:43;18.85;;;11.48;;
62623;SDS011;48699;0.000;0.000;2023-05-07T04:07:08;22.23;;;11.93;;
62623;SDS011;48699;0.000;0.000;2023-05-07T04:09:34;19.13;;;10.77;;
62623;SDS011;48699;0.000;0.000;2023-05-07T04:12:00;20.85;;;11.05;;
62623;SDS011;48699;0.000;0.000;2023-05-07T04:14:26;19.30;;;10.60;;
62623;SDS011;48699;0.000;0.000;2023-05-07T04:16:51;22.27;;;12.70;;
62623;SDS011;48699;0.000;0.000;2023-05-07T04:19:16;23.67;;;12.05;;
62623;SDS011;48699;0.000;0.000;2023-05-07T04:21:42;20.75;;;11.10;;
62623;SDS011;48699;0.000;0.000;2023-05-07T04:24:08;25.25;;;10.55;;
62623;SDS011;48699;0.000;0.000;2023-05-07T04:26:33;18.58;;;11.43;;
62623;SDS011;48699;0.000;0.000;2023-05-07T04:28:59;20.35;;;10.57;;
62623;SDS011;48699;0.000;0.000;2023-05-07T04:31:24;23.20;;;12.18;;
62623;SDS011;48699;0.000;0.000;2023-05-07T04:33:50;22.90;;;10.77;;
62623;SDS011;48699;0.000;0.000;2023-05-07T04:36:16;21.00;;;10.95;;
62623;SDS011;48699;0.000;0.000;2023-05-07T04:38:42;18.50;;;10.00;;
62623;SDS011;48699;0.000;0.000;2023-05-07T04:41:08;19.83;;;10.25;;
62623;SDS011;48699;0.000;0.000;2023-05-07T04:43:33;18.33;;;9.75;;
62623;SDS011;48699;0.000;0.000;2023-05-07T04:45:59;17.17;;;9.68;;
62623;SDS011;48699;0.000;0.000;2023-05-07T04:48:24;17.90;;;9.85;;
62623;SDS011;48699;0.000;0.000;2023-05-07T04:50:51;18.70;;;10.13;;
62623;SDS011;48699;0.000;0.000;2023-05-07T04:53:17;17.38;;;9.85;;
62623;SDS011;48699;0.000;0.000;2023-05-07T04:55:42;17.48;;;9.77;;
62623;SDS011;48699;0.000;0.000;2023-05-07T04:58:08;20.65;;;10.95;;
62623;SDS011;48699;0.000;0.000;2023-05-07T05:00:34;17.75;;;9.73;;
62623;SDS011;48699;0.000;0.000;2023-05-07T05:02:59;19.83;;;10.57;;
62623;SDS011;48699;0.000;0.000;2023-05-07T05:05:24;19.30;;;10.50;;
62623;SDS011;48699;0.000;0.000;2023-05-07T05:07:50;20.60;;;11.35;;
62623;SDS011;48699;0.000;0.000;2023-05-07T05:10:16;20.70;;;10.43;;
62623;SDS011;48699;0.000;0.000;2023-05-07T05:12:42;20.45;;;11.13;;
62623;SDS011;48699;0.000;0.000;2023-05-07T05:15:07;19.05;;;10.10;;
62623;SDS011;48699;0.000;0.000;2023-05-07T05:17:33;21.10;;;11.52;;
62623;SDS011;48699;0.000;0.000;2023-05-07T05:20:00;20.70;;;10.98;;
62623;SDS011;48699;0.000;0.000;2023-05-07T05:22:26;19.70;;;10.05;;
62623;SDS011;48699;0.000;0.000;2023-05-07T05:24:51;21.10;;;10.75;;
62623;SDS011;48699;0.000;0.000;2023-05-07T05:27:17;21.25;;;10.75;;
62623;SDS011;48699;0.000;0.000;2023-05-07T05:29:42;20.40;;;11.02;;
62623;SDS011;48699;0.000;0.000;2023-05-07T05:32:08;22.45;;;11.32;;
62623;SDS011;48699;0.000;0.000;2023-05-07T05:34:33;20.90;;;10.40;;
62623;SDS011;48699;0.000;0.000;2023-05-07T05:36:58;20.63;;;11.25;;
62623;SDS011;48699;0.000;0.000;2023-05-07T05:39:24;21.38;;;10.77;;
62623;SDS011;48699;0.000;0.000;2023-05-07T05:41:49;20.60;;;9.98;;
62623;SDS011;48699;0.000;0.000;2023-05-07T05:44:14;21.45;;;11.65;;
62623;SDS011;48699;0.000;0.000;2023-05-07T05:46:40;19.20;;;9.77;;
62623;SDS011;48699;0.000;0.000;2023-05-07T05:49:05;21.33;;;10.07;;
62623;SDS011;48699;0.000;0.000;2023-05-07T05:51:30;21.30;;;10.77;;
62623;SDS011;48699;0.000;0.000;2023-05-07T05:53:56;21.77;;;10.68;;
62623;SDS011;48699;0.000;0.000;2023-05-07T05:56:21;22.90;;;11.45;;
62623;SDS011;48699;0.000;0.000;2023-05-07T05:58:46;21.05;;;11.18;;
62623;SDS011;48699;0.000;0.000;2023-05-07T06:01:12;21.30;;;10.80;;
62623;SDS011;48699;0.000;0.000;2023-05-07T06:03:37;21.73;;;12.18;;
62623;SDS011;48699;0.000;0.000;2023-05-07T06:06:03;24.35;;;9.68;;
62623;SDS011;48699;0.000;0.000;2023-05-07T06:08:31;23.80;;;10.50;;
62623;SDS011;48699;0.000;0.000;2023-05-07T06:10:56;18.20;;;9.30;;
62623;SDS011;48699;0.000;0.000;2023-05-07T06:13:22;21.20;;;10.52;;
62623;SDS011;48699;0.000;0.000;2023-05-07T06:15:48;20.98;;;10.57;;
62623;SDS011;48699;0.000;0.000;2023-05-07T06:18:14;16.42;;;9.63;;
62623;SDS011;48699;0.000;0.000;2023-05-07T06:20:39;22.48;;;9.65;;
62623;SDS011;48699;0.000;0.000;2023-05-07T06:23:04;19.83;;;10.18;;
62623;SDS011;48699;0.000;0.000;2023-05-07T06:25:30;19.75;;;10.20;;
62623;SDS011;48699;0.000;0.000;2023-05-07T06:27:55;17.45;;;9.82;;
62623;SDS011;48699;0.000;0.000;2023-05-07T06:30:20;18.17;;;9.55;;
62623;SDS011;48699;0.000;0.000;2023-05-07T06:32:46;18.50;;;8.68;;
62623;SDS011;48699;0.000;0.000;2023-05-07T06:35:11;19.50;;;8.93;;
62623;SDS011;48699;0.000;0.000;2023-05-07T06:37:36;17.95;;;8.70;;
62623;SDS011;48699;0.000;0.000;2023-05-07T06:40:07;19.38;;;9.90;;
62623;SDS011;48699;0.000;0.000;2023-05-07T06:42:33;19.52;;;10.13;;
62623;SDS011;48699;0.000;0.000;2023-05-07T06:44:58;20.30;;;9.40;;
62623;SDS011;48699;0.000;0.000;2023-05-07T06:47:24;18.65;;;8.85;;
62623;SDS011;48699;0.000;0.000;2023-05-07T06:49:49;17.80;;;8.93;;
62623;SDS011;48699;0.000;0.000;2023-05-07T06:52:15;19.55;;;8.88;;
62623;SDS011;48699;0.000;0.000;2023-05-07T06:54:40;18.60;;;8.90;;
62623;SDS011;48699;0.000;0.000;2023-05-07T06:57:05;19.08;;;8.38;;
62623;SDS011;48699;0.000;0.000;2023-05-07T06:59:31;20.55;;;8.68;;
62623;SDS011;48699;0.000;0.000;2023-05-07T07:01:56;15.65;;;8.27;;
62623;SDS011;48699;0.000;0.000;2023-05-07T07:04:21;18.08;;;8.43;;
62623;SDS011;48699;0.000;0.000;2023-05-07T07:09:14;15.02;;;7.95;;
62623;SDS011;48699;0.000;0.000;2023-05-07T07:11:39;15.63;;;7.78;;
62623;SDS011;48699;0.000;0.000;2023-05-07T07:14:05;19.70;;;8.80;;
62623;SDS011;48699;0.000;0.000;2023-05-07T07:16:30;15.20;;;6.78;;
62623;SDS011;48699;0.000;0.000;2023-05-07T07:18:56;15.38;;;7.35;;
62623;SDS011;48699;0.000;0.000;2023-05-07T07:21:21;17.80;;;7.63;;
62623;SDS011;48699;0.000;0.000;2023-05-07T07:23:46;15.68;;;7.40;;
62623;SDS011;48699;0.000;0.000;2023-05-07T07:26:12;15.00;;;6.93;;
62623;SDS011;48699;0.000;0.000;2023-05-07T07:28:43;13.68;;;7.00;;
62623;SDS011;48699;0.000;0.000;2023-05-07T07:31:10;16.55;;;7.57;;
62623;SDS011;48699;0.000;0.000;2023-05-07T07:33:35;13.35;;;6.53;;
62623;SDS011;48699;0.000;0.000;2023-05-07T07:36:01;12.00;;;7.45;;
62623;SDS011;48699;0.000;0.000;2023-05-07T07:38:26;13.98;;;6.70;;
62623;SDS011;48699;0.000;0.000;2023-05-07T07:40:52;17.00;;;7.03;;
62623;SDS011;48699;0.000;0.000;2023-05-07T07:43:17;16.83;;;7.15;;
62623;SDS011;48699;0.000;0.000;2023-05-07T07:45:42;13.52;;;7.25;;
62623;SDS011;48699;0.000;0.000;2023-05-07T07:48:08;14.60;;;7.03;;
62623;SDS011;48699;0.000;0.000;2023-05-07T07:50:34;12.68;;;6.70;;
62623;SDS011;48699;0.000;0.000;2023-05-07T07:52:59;13.32;;;6.65;;
62623;SDS011;48699;0.000;0.000;2023-05-07T07:55:25;13.15;;;6.85;;
62623;SDS011;48699;0.000;0.000;2023-05-07T07:57:52;16.33;;;7.82;;
62623;SDS011;48699;0.000;0.000;2023-05-07T08:00:17;14.63;;;7.43;;
62623;SDS011;48699;0.000;0.000;2023-05-07T08:02:42;13.55;;;7.53;;
62623;SDS011;48699;0.000;0.000;2023-05-07T08:05:08;14.95;;;7.18;;
62623;SDS011;48699;0.000;0.000;2023-05-07T08:07:33;14.00;;;6.63;;
62623;SDS011;48699;0.000;0.000;2023-05-07T08:09:59;13.20;;;6.45;;
62623;SDS011;48699;0.000;0.000;2023-05-07T08:12:24;15.35;;;7.75;;
62623;SDS011;48699;0.000;0.000;2023-05-07T08:14:50;12.02;;;6.30;;
62623;SDS011;48699;0.000;0.000;2023-05-07T08:17:15;21.13;;;7.93;;
62623;SDS011;48699;0.000;0.000;2023-05-07T08:19:41;14.02;;;7.13;;
62623;SDS011;48699;0.000;0.000;2023-05-07T08:22:07;13.23;;;6.90;;
62623;SDS011;48699;0.000;0.000;2023-05-07T08:24:33;13.48;;;7.03;;
62623;SDS011;48699;0.000;0.000;2023-05-07T08:26:58;11.93;;;7.60;;
62623;SDS011;48699;0.000;0.000;2023-05-07T08:29:23;14.07;;;7.45;;
62623;SDS011;48699;0.000;0.000;2023-05-07T08:31:49;12.90;;;7.07;;
62623;SDS011;48699;0.000;0.000;2023-05-07T08:34:14;14.18;;;8.05;;
62623;SDS011;48699;0.000;0.000;2023-05-07T08:36:39;12.38;;;7.35;;
62623;SDS011;48699;0.000;0.000;2023-05-07T08:39:06;13.45;;;6.45;;
62623;SDS011;48699;0.000;0.000;2023-05-07T08:41:32;17.35;;;8.73;;
62623;SDS011;48699;0.000;0.000;2023-05-07T08:43:58;20.17;;;6.63;;
62623;SDS011;48699;0.000;0.000;2023-05-07T08:46:27;12.25;;;6.93;;
62623;SDS011;48699;0.000;0.000;2023-05-07T08:48:55;16.98;;;6.78;;
62623;SDS011;48699;0.000;0.000;2023-05-07T08:51:21;13.38;;;6.88;;
62623;SDS011;48699;0.000;0.000;2023-05-07T08:53:47;12.73;;;7.03;;
62623;SDS011;48699;0.000;0.000;2023-05-07T08:56:13;16.38;;;6.85;;
62623;SDS011;48699;0.000;0.000;2023-05-07T09:01:09;13.18;;;6.07;;
62623;SDS011;48699;0.000;0.000;2023-05-07T09:03:38;10.57;;;6.22;;
62623;SDS011;48699;0.000;0.000;2023-05-07T09:06:04;12.10;;;5.68;;
62623;SDS011;48699;0.000;0.000;2023-05-07T09:08:29;12.82;;;5.68;;
62623;SDS011;48699;0.000;0.000;2023-05-07T09:10:55;9.90;;;4.90;;
62623;SDS011;48699;0.000;0.000;2023-05-07T09:13:20;10.15;;;5.75;;
62623;SDS011;48699;0.000;0.000;2023-05-07T09:15:46;8.43;;;4.85;;
62623;SDS011;48699;0.000;0.000;2023-05-07T09:18:14;16.17;;;5.35;;
62623;SDS011;48699;0.000;0.000;2023-05-07T09:20:40;9.20;;;4.68;;
62623;SDS011;48699;0.000;0.000;2023-05-07T09:23:06;8.93;;;5.22;;
62623;SDS011;48699;0.000;0.000;2023-05-07T09:25:32;8.40;;;4.63;;
62623;SDS011;48699;0.000;0.000;2023-05-07T09:27:59;13.02;;;5.55;;
62623;SDS011;48699;0.000;0.000;2023-05-07T09:30:28;11.27;;;5.40;;
62623;SDS011;48699;0.000;0.000;2023-05-07T09:32:56;9.40;;;5.03;;
62623;SDS011;48699;0.000;0.000;2023-05-07T09:35:22;9.57;;;5.10;;
62623;SDS011;48699;0.000;0.000;2023-05-07T09:37:52;11.63;;;5.65;;
62623;SDS011;48699;0.000;0.000;2023-05-07T09:40:21;10.25;;;5.28;;
62623;SDS011;48699;0.000;0.000;2023-05-07T09:42:48;11.65;;;5.60;;
62623;SDS011;48699;0.000;0.000;2023-05-07T09:45:14;8.48;;;5.07;;
62623;SDS011;48699;0.000;0.000;2023-05-07T09:47:40;9.93;;;5.25;;
62623;SDS011;48699;0.000;0.000;2023-05-07T09:50:09;12.10;;;5.97;;
62623;SDS011;48699;0.000;0.000;2023-05-07T09:52:35;15.05;;;5.93;;
62623;SDS011;48699;0.000;0.000;2023-05-07T09:55:02;9.43;;;4.97;;
62623;SDS011;48699;0.000;0.000;2023-05-07T09:59:53;10.57;;;5.07;;
62623;SDS011;48699;0.000;0.000;2023-05-07T10:02:19;10.32;;;6.35;;
62623;SDS011;48699;0.000;0.000;2023-05-07T10:04:46;11.73;;;5.57;;
62623;SDS011;48699;0.000;0.000;2023-05-07T10:07:11;11.05;;;6.00;;
62623;SDS011;48699;0.000;0.000;2023-05-07T10:09:38;12.32;;;7.03;;
62623;SDS011;48699;0.000;0.000;2023-05-07T10:12:05;11.20;;;6.43;;
62623;SDS011;48699;0.000;0.000;2023-05-07T10:14:31;16.20;;;6.80;;
62623;SDS011;48699;0.000;0.000;2023-05-07T10:16:56;8.82;;;4.97;;
62623;SDS011;48699;0.000;0.000;2023-05-07T10:19:22;11.75;;;5.53;;
62623;SDS011;48699;0.000;0.000;2023-05-07T10:21:51;9.98;;;5.25;;
62623;SDS011;48699;0.000;0.000;2023-05-07T10:24:21;10.43;;;5.40;;
62623;SDS011;48699;0.000;0.000;2023-05-07T10:26:51;9.70;;;5.35;;
62623;SDS011;48699;0.000;0.000;2023-05-07T10:32:14;11.35;;;5.65;;
62623;SDS011;48699;0.000;0.000;2023-05-07T10:34:43;10.10;;;5.50;;
62623;SDS011;48699;0.000;0.000;2023-05-07T10:37:10;10.27;;;5.25;;
62623;SDS011;48699;0.000;0.000;2023-05-07T10:39:35;9.20;;;5.20;;
62623;SDS011;48699;0.000;0.000;2023-05-07T10:42:11;7.25;;;4.47;;
62623;SDS011;48699;0.000;0.000;2023-05-07T10:44:37;10.27;;;5.18;;
62623;SDS011;48699;0.000;0.000;2023-05-07T10:47:07;11.63;;;5.68;;
62623;SDS011;48699;0.000;0.000;2023-05-07T10:49:34;10.00;;;4.80;;
62623;SDS011;48699;0.000;0.000;2023-05-07T10:52:21;9.07;;;5.32;;
62623;SDS011;48699;0.000;0.000;2023-05-07T10:55:19;11.02;;;5.43;;
62623;SDS011;48699;0.000;0.000;2023-05-07T10:57:40;11.18;;;5.72;;
62623;SDS011;48699;0.000;0.000;2023-05-07T11:00:40;7.25;;;4.38;;
62623;SDS011;48699;0.000;0.000;2023-05-07T11:05:30;9.55;;;5.30;;
62623;SDS011;48699;0.000;0.000;2023-05-07T11:08:00;10.70;;;5.95;;
62623;SDS011;48699;0.000;0.000;2023-05-07T11:10:47;10.38;;;5.30;;
62623;SDS011;48699;0.000;0.000;2023-05-07T11:13:18;10.98;;;5.38;;
62623;SDS011;48699;0.000;0.000;2023-05-07T11:15:45;9.60;;;5.60;;
62623;SDS011;48699;0.000;0.000;2023-05-07T11:18:13;9.68;;;4.95;;
62623;SDS011;48699;0.000;0.000;2023-05-07T11:20:46;9.48;;;4.93;;
62623;SDS011;48699;0.000;0.000;2023-05-07T11:26:00;8.15;;;4.63;;
62623;SDS011;48699;0.000;0.000;2023-05-07T11:28:39;8.88;;;4.95;;
62623;SDS011;48699;0.000;0.000;2023-05-07T11:31:08;8.93;;;5.13;;
62623;SDS011;48699;0.000;0.000;2023-05-07T11:33:34;11.65;;;5.13;;
62623;SDS011;48699;0.000;0.000;2023-05-07T11:36:01;7.85;;;5.00;;
62623;SDS011;48699;0.000;0.000;2023-05-07T11:38:28;8.35;;;5.10;;
62623;SDS011;48699;0.000;0.000;2023-05-07T11:40:55;8.40;;;4.82;;
62623;SDS011;48699;0.000;0.000;2023-05-07T11:43:22;13.65;;;5.05;;
62623;SDS011;48699;0.000;0.000;2023-05-07T11:45:47;12.07;;;5.05;;
62623;SDS011;48699;0.000;0.000;2023-05-07T11:48:13;11.20;;;5.13;;
62623;SDS011;48699;0.000;0.000;2023-05-07T11:50:52;9.33;;;4.90;;
62623;SDS011;48699;0.000;0.000;2023-05-07T11:53:19;8.88;;;4.75;;
62623;SDS011;48699;0.000;0.000;2023-05-07T11:55:51;9.95;;;5.65;;
62623;SDS011;48699;0.000;0.000;2023-05-07T11:58:20;10.88;;;5.20;;
62623;SDS011;48699;0.000;0.000;2023-05-07T12:00:50;9.50;;;5.90;;
62623;SDS011;48699;0.000;0.000;2023-05-07T12:03:16;8.30;;;4.75;;
62623;SDS011;48699;0.000;0.000;2023-05-07T12:05:42;8.10;;;4.30;;
62623;SDS011;48699;0.000;0.000;2023-05-07T12:08:08;8.43;;;4.70;;
62623;SDS011;48699;0.000;0.000;2023-05-07T12:10:33;9.68;;;4.55;;
62623;SDS011;48699;0.000;0.000;2023-05-07T12:12:58;12.20;;;5.18;;
62623;SDS011;48699;0.000;0.000;2023-05-07T12:15:24;10.95;;;5.13;;
62623;SDS011;48699;0.000;0.000;2023-05-07T12:17:49;13.48;;;5.38;;
62623;SDS011;48699;0.000;0.000;2023-05-07T12:20:17;8.20;;;4.45;;
62623;SDS011;48699;0.000;0.000;2023-05-07T12:22:43;11.05;;;5.53;;
62623;SDS011;48699;0.000;0.000;2023-05-07T12:25:09;13.95;;;6.78;;
62623;SDS011;48699;0.000;0.000;2023-05-07T12:27:36;9.27;;;5.18;;
62623;SDS011;48699;0.000;0.000;2023-05-07T12:30:02;13.00;;;5.00;;
62623;SDS011;48699;0.000;0.000;2023-05-07T12:32:27;8.30;;;4.50;;
62623;SDS011;48699;0.000;0.000;2023-05-07T12:34:53;7.35;;;3.97;;
62623;SDS011;48699;0.000;0.000;2023-05-07T12:37:22;11.38;;;4.30;;
62623;SDS011;48699;0.000;0.000;2023-05-07T12:39:49;9.00;;;4.30;;
62623;SDS011;48699;0.000;0.000;2023-05-07T12:42:28;11.20;;;4.65;;
62623;SDS011;48699;0.000;0.000;2023-05-07T12:44:58;8.70;;;4.50;;
62623;SDS011;48699;0.000;0.000;2023-05-07T12:47:23;9.55;;;5.00;;
62623;SDS011;48699;0.000;0.000;2023-05-07T12:49:48;10.90;;;5.05;;
62623;SDS011;48699;0.000;0.000;2023-05-07T12:52:14;9.43;;;5.25;;
62623;SDS011;48699;0.000;0.000;2023-05-07T12:54:39;8.63;;;5.28;;
62623;SDS011;48699;0.000;0.000;2023-05-07T12:57:06;12.00;;;5.32;;
62623;SDS011;48699;0.000;0.000;2023-05-07T12:59:35;8.70;;;4.68;;
62623;SDS011;48699;0.000;0.000;2023-05-07T13:02:01;8.93;;;5.63;;
62623;SDS011;48699;0.000;0.000;2023-05-07T13:04:27;8.80;;;5.15;;
62623;SDS011;48699;0.000;0.000;2023-05-07T13:06:52;12.60;;;4.93;;
62623;SDS011;48699;0.000;0.000;2023-05-07T13:09:18;11.30;;;4.97;;
62623;SDS011;48699;0.000;0.000;2023-05-07T13:11:43;8.48;;;5.13;;
62623;SDS011;48699;0.000;0.000;2023-05-07T13:14:08;10.90;;;6.03;;
62623;SDS011;48699;0.000;0.000;2023-05-07T13:16:34;8.70;;;5.35;;
62623;SDS011;48699;0.000;0.000;2023-05-07T13:18:59;8.80;;;4.78;;
62623;SDS011;48699;0.000;0.000;2023-05-07T13:21:25;10.25;;;5.45;;
62623;SDS011;48699;0.000;0.000;2023-05-07T13:23:51;11.30;;;5.72;;
62623;SDS011;48699;0.000;0.000;2023-05-07T13:26:17;10.98;;;5.57;;
62623;SDS011;48699;0.000;0.000;2023-05-07T13:28:42;10.20;;;5.28;;
62623;SDS011;48699;0.000;0.000;2023-05-07T13:31:08;8.75;;;4.90;;
62623;SDS011;48699;0.000;0.000;2023-05-07T13:33:34;8.45;;;4.72;;
62623;SDS011;48699;0.000;0.000;2023-05-07T13:35:59;7.80;;;4.35;;
62623;SDS011;48699;0.000;0.000;2023-05-07T13:38:25;10.13;;;4.77;;
62623;SDS011;48699;0.000;0.000;2023-05-07T13:40:51;11.40;;;4.45;;
62623;SDS011;48699;0.000;0.000;2023-05-07T13:43:16;11.13;;;3.80;;
62623;SDS011;48699;0.000;0.000;2023-05-07T13:45:42;10.82;;;5.32;;
62623;SDS011;48699;0.000;0.000;2023-05-07T13:48:07;7.38;;;4.57;;
62623;SDS011;48699;0.000;0.000;2023-05-07T13:50:33;8.73;;;4.72;;
62623;SDS011;48699;0.000;0.000;2023-05-07T13:52:58;10.02;;;5.45;;
62623;SDS011;48699;0.000;0.000;2023-05-07T13:55:24;8.82;;;4.55;;
62623;SDS011;48699;0.000;0.000;2023-05-07T13:57:56;8.18;;;4.60;;
62623;SDS011;48699;0.000;0.000;2023-05-07T14:00:25;8.18;;;4.30;;
62623;SDS011;48699;0.000;0.000;2023-05-07T14:02:51;9.07;;;4.40;;
62623;SDS011;48699;0.000;0.000;2023-05-07T14:05:17;9.35;;;4.70;;
62623;SDS011;48699;0.000;0.000;2023-05-07T14:07:42;7.85;;;4.25;;
62623;SDS011;48699;0.000;0.000;2023-05-07T14:10:08;9.52;;;4.78;;
62623;SDS011;48699;0.000;0.000;2023-05-07T14:12:34;6.20;;;3.58;;
62623;SDS011;48699;0.000;0.000;2023-05-07T14:14:59;7.75;;;4.55;;
62623;SDS011;48699;0.000;0.000;2023-05-07T14:17:25;10.45;;;4.47;;
62623;SDS011;48699;0.000;0.000;2023-05-07T14:19:52;7.07;;;4.40;;
62623;SDS011;48699;0.000;0.000;2023-05-07T14:22:21;6.75;;;3.83;;
62623;SDS011;48699;0.000;0.000;2023-05-07T14:24:47;7.95;;;4.13;;
62623;SDS011;48699;0.000;0.000;2023-05-07T14:27:12;8.70;;;3.28;;
62623;SDS011;48699;0.000;0.000;2023-05-07T14:29:38;7.68;;;3.90;;
62623;SDS011;48699;0.000;0.000;2023-05-07T14:32:03;9.18;;;3.80;;
62623;SDS011;48699;0.000;0.000;2023-05-07T14:34:29;6.90;;;3.03;;
62623;SDS011;48699;0.000;0.000;2023-05-07T14:36:54;7.30;;;4.25;;
62623;SDS011;48699;0.000;0.000;2023-05-07T14:39:20;8.35;;;3.83;;
62623;SDS011;48699;0.000;0.000;2023-05-07T14:41:46;5.90;;;3.63;;
62623;SDS011;48699;0.000;0.000;2023-05-07T14:44:11;7.90;;;4.18;;
62623;SDS011;48699;0.000;0.000;2023-05-07T14:46:36;8.48;;;3.45;;
62623;SDS011;48699;0.000;0.000;2023-05-07T14:49:02;7.78;;;3.92;;
62623;SDS011;48699;0.000;0.000;2023-05-07T14:51:27;6.00;;;3.40;;
62623;SDS011;48699;0.000;0.000;2023-05-07T14:53:53;6.70;;;3.53;;
62623;SDS011;48699;0.000;0.000;2023-05-07T14:56:19;7.00;;;3.13;;
62623;SDS011;48699;0.000;0.000;2023-05-07T14:58:46;7.03;;;2.93;;